ADDS METAR Data INFO
IDs: Format: Raw Decoded Include TAF

Data at: 0403 UTC 11 Dec 2017

KHTO 110355Z AUTO 27005KT 10SM SCT110 02/M06 A3000 RMK AO2 T00181060
KHTO 110335Z AUTO 26007KT 10SM SCT110 02/M06 A3001 RMK AO2 T00151060
KHTO 110315Z AUTO 27006KT 10SM CLR 01/M06 A3001 RMK AO2 T00101062
KHTO 110255Z AUTO 24006KT 10SM CLR 01/M06 A3001 RMK AO2 T00081062
KHTO 110235Z AUTO 25005KT 10SM CLR 01/M06 A3001 RMK AO2 T00101058
KHTO 110215Z AUTO 25006KT 10SM CLR 01/M06 A3000 RMK AO2 T00101057
KHTO 110155Z AUTO 26009KT 10SM CLR 01/M05 A3000 RMK AO2 T00131054
KHTO 110135Z AUTO 26007KT 10SM CLR 01/M05 A3000 RMK AO2 T00141051
KHTO 110115Z AUTO 26008KT 10SM CLR 01/M05 A3000 RMK AO2 T00141051
KHTO 110055Z AUTO 26005KT 10SM SCT050 01/M05 A2999 RMK AO2 T00131051
KHTO 110035Z AUTO 25007KT 10SM BKN050 02/M05 A2999 RMK AO2 T00171050
KHTO 110015Z AUTO 25006KT 10SM OVC048 02/M05 A2998 RMK AO2 T00221050
KHTO 102355Z AUTO 25008KT 10SM OVC046 02/M05 A2998 RMK AO2 T00231047 10040 20010
KHTO 102335Z AUTO 25008KT 10SM OVC044 02/M04 A2997 RMK AO2 T00201044
KHTO 102315Z AUTO 24005KT 10SM OVC044 02/M05 A2997 RMK AO2 T00201046
KHTO 102255Z AUTO 24004KT 10SM OVC048 02/M04 A2996 RMK AO2 T00161045
KHTO 102235Z AUTO 24006KT 10SM BKN050 02/M04 A2996 RMK AO2 T00151042
KHTO 102215Z AUTO 26004KT 10SM SCT048 01/M04 A2995 RMK AO2 T00111040
KHTO 102155Z AUTO 26005KT 10SM BKN048 02/M04 A2994 RMK AO2 T00151039
KHTO 102135Z AUTO 27005KT 10SM SCT043 02/M04 A2994 RMK AO2 T00161040
KHTO 102115Z AUTO 26006KT 10SM SCT045 02/M04 A2993 RMK AO2 T00211038
KHTO 102055Z AUTO 26006KT 10SM CLR 03/M04 A2992 RMK AO2 T00261037
KHTO 102035Z AUTO 27008KT 10SM SCT036 03/M04 A2991 RMK AO2 T00301036
KHTO 102015Z AUTO 26010G17KT 10SM SCT036 03/M03 A2990 RMK AO2 T00331035
KHTO 101955Z AUTO 27009G19KT 10SM CLR 04/M03 A2989 RMK AO2 T00351033
KHTO 101935Z AUTO 27009G17KT 250V310 10SM CLR 04/M04 A2989 RMK AO2 T00351037
KHTO 101915Z AUTO 26013G19KT 10SM CLR 04/M04 A2988 RMK AO2 T00351036
KHTO 101855Z AUTO 27008G17KT 240V310 10SM CLR 04/M04 A2987 RMK AO2 T00361038
KHTO 101835Z AUTO 29008G14KT 260V320 10SM CLR 04/M03 A2987 RMK AO2 T00391034
KHTO 101815Z AUTO 28010G17KT 10SM CLR 04/M04 A2986 RMK AO2 T00351036
KHTO 101755Z AUTO 27010G19KT 10SM CLR 04/M03 A2986 RMK AO2 T00361030 10039 20003
KHTO 101735Z AUTO 28007G16KT 10SM CLR 04/M03 A2986 RMK AO2 T00351029
KHTO 101715Z AUTO 27010G17KT 10SM CLR 03/M03 A2986 RMK AO2 T00331031
KHTO 101655Z AUTO 28008G18KT 10SM CLR 03/M03 A2986 RMK AO2 T00331028
KHTO 101635Z AUTO 29011G18KT 10SM CLR 03/M03 A2986 RMK AO2 T00331030
KHTO 101615Z AUTO 29008G17KT 250V320 10SM CLR 03/M03 A2987 RMK AO2 T00301030
KHTO 101555Z AUTO 27009G16KT 10SM CLR 03/M03 A2987 RMK AO2 T00281031
KHTO 101535Z AUTO 28011G18KT 10SM CLR 03/M03 A2987 RMK AO2 T00261032
KHTO 101515Z AUTO 30011G17KT 10SM CLR 03/M03 A2987 RMK AO2 T00261030
KHTO 101455Z AUTO 29009G14KT 250V330 10SM CLR 02/M03 A2986 RMK AO2 T00241032
KHTO 101435Z AUTO 30010G15KT 10SM SCT023 02/M02 A2986 RMK AO2 T00221025
KHTO 101415Z AUTO 29008KT 260V330 10SM CLR 02/M02 A2985 RMK AO2 T00161022
KHTO 101355Z AUTO 29006KT 10SM CLR 01/M02 A2984 RMK AO2 T00111022
KHTO 101335Z AUTO 29005KT 10SM CLR 01/M02 A2983 RMK AO2 T00061023
KHTO 101315Z AUTO 29004KT 10SM SCT120 01/M02 A2982 RMK AO2 T00051020
KHTO 101255Z AUTO 30007KT 10SM SCT015 01/M02 A2981 RMK AO2 T00051019
KHTO 101235Z AUTO 31006KT 10SM OVC015 01/M02 A2980 RMK AO2 T00051017
KHTO 101215Z AUTO 30005KT 10SM BKN017 OVC110 01/M02 A2979 RMK AO2 T00051016
KHTO 101155Z AUTO 30006KT 10SM SCT017 OVC100 00/M02 A2978 RMK AO2 70023 T00031019 10008 20000
KHTO 101135Z AUTO 32008G15KT 10SM SCT017 SCT024 OVC100 01/M02 A2976 RMK AO2 T00051017
KHTO 101115Z AUTO 30009G16KT 270V330 10SM BKN017 BKN024 OVC100 01/M01 A2976 RMK AO2 T00071015
KHTO 101055Z AUTO 30006KT 10SM BKN017 OVC022 01/M01 A2975 RMK AO2 T00081011
KHTO 101035Z AUTO 27004KT 10SM BKN019 OVC095 01/M01 A2973 RMK AO2 T00051010
KHTO 101015Z AUTO 29003KT 10SM SCT018 SCT026 BKN120 00/M01 A2972 RMK AO2 T00041008
KHTO 100955Z AUTO 31003KT 10SM SCT016 SCT050 BKN070 01/M01 A2970 RMK AO2 T00051007
KHTO 100935Z AUTO 32003KT 10SM OVC014 00/M01 A2970 RMK AO2 T00041006
KHTO 100915Z AUTO 00000KT 10SM BKN012 BKN055 OVC070 00/M01 A2970 RMK AO2 T00011006
KHTO 100855Z AUTO 00000KT 10SM SCT055 BKN065 OVC120 00/M01 A2969 RMK AO2 T00011007
KHTO 100835Z AUTO 31003KT 10SM BKN023 BKN065 OVC120 00/M01 A2969 RMK AO2 T00001006
KHTO 100815Z AUTO 00000KT 10SM BKN021 OVC028 00/M01 A2968 RMK AO2 T00001007
KHTO 100755Z AUTO 33003KT 10SM BKN021 OVC028 00/M01 A2968 RMK AO2 T00001008
KHTO 100735Z AUTO 31003KT 10SM SCT012 BKN019 OVC070 00/M01 A2968 RMK AO2 T00001008
KHTO 100715Z AUTO 31004KT 10SM SCT010 BKN013 OVC070 00/M01 A2968 RMK AO2 T00001008
KHTO 100655Z AUTO 31005KT 10SM OVC008 00/M01 A2968 RMK AO2 T00001006
KHTO 100635Z AUTO 33004KT 5SM BR BKN006 OVC014 00/M01 A2966 RMK AO2 T00001006
KHTO 100615Z AUTO 33005KT 4SM BR SCT006 OVC016 00/00 A2967 RMK AO2 T00001005
KHTO 100555Z AUTO 32005KT 4SM -SN BKN009 OVC014 00/00 A2966 RMK AO2 60001 T00001005 10005 20000
KHTO 100535Z AUTO 34005KT 10SM OVC012 00/00 A2966 RMK AO2 T00001005
KHTO 100515Z AUTO 32005KT 10SM OVC010 00/00 A2966 RMK AO2 T00001005
KHTO 100455Z AUTO 32005KT 10SM -SN OVC008 00/00 A2965 RMK AO2 T00001005 400250000
KHTO 100435Z AUTO 32005KT 10SM -SN OVC008 00/00 A2966 RMK AO2 T00011003
KHTO 100415Z AUTO 34005KT 7SM -SN OVC008 00/00 A2965 RMK AO2 T00011004
KHTO 100355Z AUTO 33005KT 7SM -SN OVC006 00/00 A2965 RMK AO2 T00011003
KHTO 100335Z AUTO 34006KT 10SM -DZ OVC006 00/00 A2965 RMK AO2 T00021002
KHTO 100315Z AUTO 34006KT 10SM -DZ OVC006 00/00 A2966 RMK AO2 T00021001
KHTO 100255Z AUTO 35006KT 10SM -DZ OVC004 00/00 A2965 RMK AO2 60001 T00020000
KHTO 100235Z AUTO 35006KT 10SM -RA OVC004 00/00 A2965 RMK AO2 T00011001
KHTO 100215Z AUTO 36007KT 7SM -SN BKN004 OVC011 00/00 A2965 RMK AO2 T00001001
KHTO 100155Z AUTO 36007KT 5SM -RA BKN006 OVC010 00/00 A2965 RMK AO2 T00011001
KHTO 100135Z AUTO 36006KT 5SM -RA OVC006 00/00 A2968 RMK AO2 T00020000
KHTO 100115Z AUTO 35006KT 5SM -RA OVC006 00/00 A2966 RMK AO2 T00021001
KHTO 100055Z AUTO 01004KT 5SM -SN OVC006 00/00 A2965 RMK AO2 T00031001
KHTO 100035Z AUTO 01007KT 7SM -RA OVC006 01/00 A2965 RMK AO2 T00050000
KHTO 100015Z AUTO 01005KT 7SM -RA OVC006 01/00 A2966 RMK AO2 T00050000
KHTO 092355Z AUTO 01008KT 7SM -RA OVC006 01/00 A2966 RMK AO2 P0001 60018 T00050000 10008 20000
KHTO 092335Z AUTO 01008KT 10SM -RA OVC006 01/00 A2967 RMK AO2 P0001 T00050000
KHTO 092315Z AUTO 02006G15KT 7SM -RA OVC006 01/00 A2968 RMK AO2 P0001 T00050000
KHTO 092255Z AUTO 02007KT 7SM -RA OVC006 01/00 A2968 RMK AO2 P0001 T00060000
KHTO 092235Z AUTO 02009KT 7SM -DZ OVC006 01/00 A2968 RMK AO2 P0001 T00050000
KHTO 092215Z AUTO 03006KT 7SM -RA OVC006 01/00 A2968 RMK AO2 P0001 T00050000
KHTO 092155Z AUTO 03008G14KT 7SM -RA OVC006 01/00 A2969 RMK AO2 P0001 T00060000
KHTO 092135Z AUTO 02009G15KT 360V060 10SM -RA OVC006 01/00 A2969 RMK AO2 P0001 T00060000
KHTO 092115Z AUTO 02006KT 5SM -RA OVC006 01/00 A2970 RMK AO2 T00070000
KHTO 092055Z AUTO 01009KT 10SM -DZ OVC006 01/00 A2971 RMK AO2 P0001 60014 T00070000
KHTO 092035Z AUTO 01007KT 10SM OVC008 01/00 A2970 RMK AO2 P0001 T00050000
KHTO 092015Z AUTO 02006KT 7SM -RA OVC008 01/00 A2973 RMK AO2 P0001 T00050000
KHTO 091955Z AUTO 03005KT 3SM -RA BKN008 OVC011 01/00 A2974 RMK AO2 P0005 T00050000
KHTO 091935Z AUTO 02006KT 5SM -RA BKN006 OVC011 00/00 A2974 RMK AO2 P0003 T00031001
KHTO 091915Z AUTO 02007KT 4SM -RA OVC006 00/00 A2974 RMK AO2 P0002 T00011001
KHTO 091855Z AUTO 02007KT 4SM -SN OVC004 00/00 A2976 RMK AO2 P0007 T00001002
KHTO 091835Z AUTO 01005KT 2SM -SN OVC004 00/00 A2979 RMK AO2 P0003 T00001003
KHTO 091815Z AUTO 01008KT 3SM -SN OVC004 00/00 A2979 RMK AO2 P0001 T00001003
KHTO 091755Z AUTO 02006KT 1 1/2SM -SN OVC004 00/00 A2981 RMK AO2 P0002 60004 T00001004 10025 20000
KHTO 091735Z AUTO 01007KT 2SM -SN OVC004 00/00 A2984 RMK AO2 P0001 T00001003
KHTO 091715Z AUTO 36007KT 2 1/2SM -RA BKN004 OVC011 00/00 A2985 RMK AO2 T00001003
KHTO 091655Z AUTO 01007KT 2 1/2SM -RA BKN006 OVC011 00/00 A2986 RMK AO2 P0001 T00011002
KHTO 091635Z AUTO 01005KT 3SM -RA OVC006 01/00 A2988 RMK AO2 P0001 T00050000
KHTO 091615Z AUTO 36005KT 2 1/2SM -SN OVC006 01/00 A2989 RMK AO2 P0001 T00050000